Time,TemperatureF,DewpointF,PressureIn,WindDirection,WindDirectionDegrees,WindSpeedMPH,WindSpeedGustMPH,Humidity,HourlyPrecipIn,Conditions,Clouds,dailyrainin,SoftwareType,DateUTC
2013-07-03 00:00:00,58.4,49.7,30.07,NE,38,1.9,4.0,72,0.00,,,0.00,WUHU216HW,2013-07-03 05:00:00,
2013-07-03 00:10:00,58.4,48.9,30.07,ENE,66,2.0,2.9,70,0.00,,,0.00,WUHU216HW,2013-07-03 05:10:00,
2013-07-03 00:20:00,58.6,50.2,30.07,NE,45,2.3,3.4,73,0.00,,,0.00,WUHU216HW,2013-07-03 05:20:00,
2013-07-03 00:30:00,58.6,50.9,30.06,NNE,25,1.4,3.8,75,0.00,,,0.00,WUHU216HW,2013-07-03 05:30:00,
2013-07-03 00:40:00,58.4,50.7,30.06,NNE,29,1.6,2.7,75,0.00,,,0.00,WUHU216HW,2013-07-03 05:40:00,
2013-07-03 00:50:00,58.6,51.3,30.06,NNE,21,1.6,2.5,76,0.00,,,0.00,WUHU216HW,2013-07-03 05:50:00,
2013-07-03 01:00:00,58.8,51.1,30.06,NE,41,2.2,3.4,75,0.00,,,0.00,WUHU216HW,2013-07-03 06:00:00,
2013-07-03 01:10:00,58.8,50.8,30.06,NE,47,3.0,4.5,74,0.00,,,0.00,WUHU216HW,2013-07-03 06:10:00,
2013-07-03 01:20:00,58.8,52.2,30.06,NE,40,2.3,3.6,78,0.00,,,0.00,WUHU216HW,2013-07-03 06:20:00,
2013-07-03 01:30:00,58.8,51.5,30.06,NE,55,2.2,3.1,76,0.00,,,0.00,WUHU216HW,2013-07-03 06:30:00,
2013-07-03 01:41:00,58.8,51.1,30.05,NE,52,3.3,4.7,75,0.00,,,0.00,WUHU216HW,2013-07-03 06:41:00,
2013-07-03 01:51:00,58.8,51.5,30.05,ENE,61,3.4,4.5,76,0.00,,,0.00,WUHU216HW,2013-07-03 06:51:00,
2013-07-03 02:01:00,58.8,51.8,30.05,ENE,58,3.3,4.5,77,0.00,,,0.00,WUHU216HW,2013-07-03 07:01:00,
2013-07-03 02:12:00,59.0,53.0,30.05,NE,35,2.7,4.0,80,0.00,,,0.00,WUHU216HW,2013-07-03 07:12:00,
2013-07-03 02:22:00,59.0,52.7,30.05,NE,38,2.4,3.6,79,0.00,,,0.00,WUHU216HW,2013-07-03 07:22:00,
2013-07-03 02:32:00,59.0,53.7,30.05,NE,45,2.4,5.4,82,0.00,,,0.00,WUHU216HW,2013-07-03 07:32:00,
2013-07-03 02:42:00,59.0,53.4,30.04,NE,39,2.4,4.0,81,0.00,,,0.00,WUHU216HW,2013-07-03 07:42:00,
2013-07-03 02:52:00,58.8,53.5,30.04,NE,46,4.1,5.4,82,0.00,,,0.00,WUHU216HW,2013-07-03 07:52:00,
2013-07-03 03:02:00,58.8,54.1,30.04,NE,39,3.6,5.6,84,0.00,,,0.00,WUHU216HW,2013-07-03 08:02:00,
2013-07-03 03:12:00,58.8,54.1,30.04,NE,40,1.8,2.7,84,0.00,,,0.00,WUHU216HW,2013-07-03 08:12:00,
2013-07-03 03:22:00,58.6,54.5,30.04,NE,56,2.6,4.7,86,0.00,,,0.00,WUHU216HW,2013-07-03 08:22:00,
2013-07-03 03:32:00,58.6,54.9,30.04,NE,38,2.4,3.4,87,0.00,,,0.00,WUHU216HW,2013-07-03 08:32:00,
2013-07-03 03:42:00,58.4,55.0,30.04,NE,37,2.5,5.1,88,0.00,,,0.00,WUHU216HW,2013-07-03 08:42:00,
2013-07-03 03:52:00,58.4,54.3,30.04,NE,37,2.5,4.0,86,0.00,,,0.00,WUHU216HW,2013-07-03 08:52:00,
2013-07-03 04:02:00,58.6,54.9,30.04,NE,36,2.1,4.3,87,0.00,,,0.00,WUHU216HW,2013-07-03 09:02:00,
2013-07-03 04:12:00,58.6,54.5,30.04,NE,48,3.0,4.3,86,0.00,,,0.00,WUHU216HW,2013-07-03 09:12:00,
2013-07-03 04:23:00,58.6,54.9,30.04,NE,41,3.0,4.3,87,0.00,,,0.00,WUHU216HW,2013-07-03 09:23:00,
2013-07-03 04:33:00,58.6,54.9,30.04,NE,42,3.9,5.4,87,0.00,,,0.00,WUHU216HW,2013-07-03 09:33:00,
2013-07-03 04:43:00,58.4,54.3,30.04,NE,44,2.8,4.7,86,0.00,,,0.00,WUHU216HW,2013-07-03 09:43:00,
2013-07-03 04:53:00,58.6,54.5,30.04,NE,36,3.3,4.7,86,0.00,,,0.00,WUHU216HW,2013-07-03 09:53:00,
2013-07-03 05:03:00,58.8,54.7,30.04,NE,36,2.7,4.5,86,0.00,,,0.00,WUHU216HW,2013-07-03 10:03:00,
2013-07-03 05:14:00,58.8,54.7,30.04,NE,39,3.7,6.5,86,0.00,,,0.00,WUHU216HW,2013-07-03 10:14:00,
2013-07-03 05:24:00,59.0,54.6,30.04,NE,49,4.2,6.9,85,0.00,,,0.00,WUHU216HW,2013-07-03 10:24:00,
2013-07-03 05:34:00,59.0,54.6,30.04,ENE,57,3.7,4.9,85,0.00,,,0.00,WUHU216HW,2013-07-03 10:34:00,
2013-07-03 05:44:00,59.2,54.8,30.04,NE,35,3.8,5.4,85,0.00,,,0.00,WUHU216HW,2013-07-03 10:44:00,
2013-07-03 05:54:00,59.2,54.8,30.05,NE,38,3.8,5.4,85,0.00,,,0.00,WUHU216HW,2013-07-03 10:54:00,
2013-07-03 06:04:00,59.0,54.6,30.05,NE,35,3.0,4.3,85,0.00,,,0.00,WUHU216HW,2013-07-03 11:04:00,
2013-07-03 06:15:00,59.2,55.1,30.05,NE,45,3.4,5.6,86,0.00,,,0.00,WUHU216HW,2013-07-03 11:15:00,
2013-07-03 06:25:00,59.3,55.2,30.05,NE,34,2.5,4.0,86,0.00,,,0.00,WUHU216HW,2013-07-03 11:25:00,
2013-07-03 06:36:00,59.3,54.9,30.05,NE,42,3.0,4.7,85,0.00,,,0.00,WUHU216HW,2013-07-03 11:36:00,
2013-07-03 06:46:00,59.3,55.2,30.05,NNE,26,2.6,4.3,86,0.00,,,0.00,WUHU216HW,2013-07-03 11:46:00,
2013-07-03 06:56:00,59.5,55.4,30.05,NE,53,3.6,5.1,86,0.00,,,0.00,WUHU216HW,2013-07-03 11:56:00,
2013-07-03 07:06:00,59.7,55.6,30.06,NE,37,3.2,6.3,86,0.00,,,0.00,WUHU216HW,2013-07-03 12:06:00,
2013-07-03 07:16:00,59.5,55.4,30.06,NNE,18,2.3,3.6,86,0.00,,,0.00,WUHU216HW,2013-07-03 12:16:00,
2013-07-03 07:26:00,59.9,55.8,30.06,NNE,33,1.9,4.5,86,0.00,,,0.00,WUHU216HW,2013-07-03 12:26:00,
2013-07-03 07:36:00,60.8,56.4,30.06,NE,35,2.1,4.9,85,0.00,,,0.00,WUHU216HW,2013-07-03 12:36:00,
2013-07-03 07:47:00,61.0,56.0,30.06,NNE,15,3.1,4.9,83,0.00,,,0.00,WUHU216HW,2013-07-03 12:47:00,
2013-07-03 07:57:00,61.9,55.9,30.06,NE,40,2.9,4.7,80,0.00,,,0.00,WUHU216HW,2013-07-03 12:57:00,
2013-07-03 08:07:00,62.8,56.7,30.06,NE,53,5.0,8.3,80,0.00,,,0.00,WUHU216HW,2013-07-03 13:07:00,
2013-07-03 08:17:00,63.1,56.4,30.06,NE,51,3.9,6.3,78,0.00,,,0.00,WUHU216HW,2013-07-03 13:17:00,
2013-07-03 08:27:00,62.9,55.8,30.07,ENE,61,6.1,9.2,77,0.00,,,0.00,WUHU216HW,2013-07-03 13:27:00,
2013-07-03 08:37:00,63.3,56.2,30.07,NE,44,6.2,9.6,77,0.00,,,0.00,WUHU216HW,2013-07-03 13:37:00,
2013-07-03 08:47:00,64.4,56.9,30.07,ENE,63,7.4,12.1,76,0.00,,,0.00,WUHU216HW,2013-07-03 13:47:00,
2013-07-03 08:57:00,64.4,56.6,30.07,NE,43,6.1,9.2,75,0.00,,,0.00,WUHU216HW,2013-07-03 13:57:00,
2013-07-03 09:07:00,64.6,56.8,30.07,NE,48,6.0,9.2,75,0.00,,,0.00,WUHU216HW,2013-07-03 14:07:00,
2013-07-03 09:17:00,65.1,57.6,30.07,NE,45,3.9,6.9,76,0.00,,,0.00,WUHU216HW,2013-07-03 14:17:00,
2013-07-03 09:27:00,65.1,57.2,30.07,NE,37,3.4,6.9,75,0.00,,,0.00,WUHU216HW,2013-07-03 14:27:00,
2013-07-03 09:38:00,65.1,57.6,30.06,NNE,12,2.1,3.4,76,0.00,,,0.00,WUHU216HW,2013-07-03 14:38:00,
2013-07-03 09:48:00,66.0,58.1,30.06,NNE,27,2.9,5.6,75,0.00,,,0.00,WUHU216HW,2013-07-03 14:48:00,
2013-07-03 09:58:00,67.4,58.4,30.06,NE,46,3.8,7.6,72,0.00,,,0.00,WUHU216HW,2013-07-03 14:58:00,
2013-07-03 10:08:00,66.9,57.5,30.06,NE,35,3.4,6.9,71,0.00,,,0.00,WUHU216HW,2013-07-03 15:08:00,
2013-07-03 10:18:00,67.6,57.8,30.06,NNE,31,3.7,6.9,70,0.00,,,0.00,WUHU216HW,2013-07-03 15:18:00,
2013-07-03 10:28:00,68.5,58.3,30.06,ENE,65,6.8,10.5,69,0.00,,,0.00,WUHU216HW,2013-07-03 15:28:00,
2013-07-03 10:38:00,69.4,57.9,30.06,NE,55,5.7,9.2,66,0.00,,,0.00,WUHU216HW,2013-07-03 15:38:00,
2013-07-03 10:48:00,70.5,58.5,30.06,ENE,59,6.1,9.2,65,0.00,,,0.00,WUHU216HW,2013-07-03 15:48:00,
2013-07-03 10:58:00,69.1,56.8,30.06,ENE,69,6.5,8.7,64,0.00,,,0.00,WUHU216HW,2013-07-03 15:58:00,
2013-07-03 11:08:00,67.6,56.6,30.06,NE,46,5.4,10.3,67,0.00,,,0.00,WUHU216HW,2013-07-03 16:08:00,
2013-07-03 11:18:00,67.3,57.1,30.06,NNE,32,2.6,4.3,69,0.00,,,0.00,WUHU216HW,2013-07-03 16:18:00,
2013-07-03 11:28:00,67.8,57.6,30.06,ENE,58,4.9,9.2,69,0.00,,,0.00,WUHU216HW,2013-07-03 16:28:00,
2013-07-03 11:38:00,68.3,57.7,30.06,NE,48,5.9,7.6,68,0.00,,,0.00,WUHU216HW,2013-07-03 16:38:00,
2013-07-03 11:48:00,70.0,58.1,30.06,ENE,58,5.3,8.7,65,0.00,,,0.00,WUHU216HW,2013-07-03 16:48:00,
2013-07-03 11:58:00,70.0,57.6,30.06,NE,38,4.3,6.9,64,0.00,,,0.00,WUHU216HW,2013-07-03 16:58:00,
2013-07-03 12:08:00,69.4,57.9,30.05,NNE,28,3.7,7.4,66,0.00,,,0.00,WUHU216HW,2013-07-03 17:08:00,
2013-07-03 12:18:00,69.6,58.1,30.05,NE,36,3.1,6.9,66,0.00,,,0.00,WUHU216HW,2013-07-03 17:18:00,
2013-07-03 12:29:00,69.6,58.1,30.05,NNE,33,2.5,4.5,66,0.00,,,0.00,WUHU216HW,2013-07-03 17:29:00,
2013-07-03 12:39:00,70.3,58.3,30.05,NE,46,3.6,5.1,65,0.00,,,0.00,WUHU216HW,2013-07-03 17:39:00,
2013-07-03 12:49:00,69.6,58.5,30.04,NNE,25,2.7,4.7,67,0.00,,,0.00,WUHU216HW,2013-07-03 17:49:00,
2013-07-03 12:59:00,69.6,58.9,30.05,NE,39,3.7,6.7,68,0.00,,,0.00,WUHU216HW,2013-07-03 17:59:00,
2013-07-03 13:09:00,70.0,58.9,30.04,NE,50,5.4,7.6,67,0.00,,,0.00,WUHU216HW,2013-07-03 18:09:00,
2013-07-03 13:19:00,70.3,59.2,30.04,ENE,58,3.2,4.5,67,0.00,,,0.00,WUHU216HW,2013-07-03 18:19:00,
2013-07-03 13:29:00,70.7,59.1,30.05,ENE,61,4.0,5.6,66,0.00,,,0.00,WUHU216HW,2013-07-03 18:29:00,
2013-07-03 13:39:00,69.2,58.5,30.04,NE,51,4.8,7.8,68,0.00,,,0.00,WUHU216HW,2013-07-03 18:39:00,
2013-07-03 13:49:00,68.0,58.9,30.04,NNE,33,3.7,5.6,72,0.00,,,0.00,WUHU216HW,2013-07-03 18:49:00,
2013-07-03 13:59:00,67.6,58.6,30.04,ENE,68,4.8,6.0,72,0.00,,,0.00,WUHU216HW,2013-07-03 18:59:00,
2013-07-03 14:09:00,67.4,58.7,30.04,ENE,57,5.4,6.9,73,0.00,,,0.00,WUHU216HW,2013-07-03 19:09:00,
2013-07-03 14:20:00,68.5,59.8,30.04,NE,52,3.2,4.5,73,0.00,,,0.00,WUHU216HW,2013-07-03 19:20:00,
2013-07-03 14:30:00,69.6,60.9,30.03,ENE,66,3.7,6.9,73,0.00,,,0.00,WUHU216HW,2013-07-03 19:30:00,
2013-07-03 14:40:00,70.3,60.8,30.03,NE,39,2.8,5.6,71,0.00,,,0.00,WUHU216HW,2013-07-03 19:40:00,
2013-07-03 14:50:00,70.1,61.0,30.03,NNE,12,2.7,4.3,72,0.00,,,0.00,WUHU216HW,2013-07-03 19:50:00,
2013-07-03 15:00:00,69.1,60.4,30.03,North,7,2.3,4.7,73,0.00,,,0.00,WUHU216HW,2013-07-03 20:00:00,
2013-07-03 15:10:00,70.7,61.2,30.03,East,87,2.5,5.1,71,0.00,,,0.00,WUHU216HW,2013-07-03 20:10:00,
2013-07-03 15:20:00,69.6,60.5,30.03,NNE,14,2.0,4.0,72,0.00,,,0.00,WUHU216HW,2013-07-03 20:20:00,
2013-07-03 15:30:00,69.2,60.9,30.03,NNE,25,2.5,6.9,74,0.00,,,0.00,WUHU216HW,2013-07-03 20:30:00,
2013-07-03 15:40:00,69.2,60.9,30.03,NE,52,3.3,5.6,74,0.00,,,0.00,WUHU216HW,2013-07-03 20:40:00,
2013-07-03 15:50:00,69.2,60.5,30.03,East,86,3.2,4.7,73,0.00,,,0.00,WUHU216HW,2013-07-03 20:50:00,
2013-07-03 16:00:00,68.9,60.9,30.03,ENE,64,4.1,5.1,75,0.00,,,0.00,WUHU216HW,2013-07-03 21:00:00,
2013-07-03 16:10:00,68.9,61.3,30.02,ENE,60,3.6,6.9,76,0.00,,,0.00,WUHU216HW,2013-07-03 21:10:00,
2013-07-03 16:20:00,69.6,61.2,30.02,ENE,62,3.0,4.3,74,0.00,,,0.00,WUHU216HW,2013-07-03 21:20:00,
2013-07-03 16:30:00,69.4,61.0,30.02,ENE,64,2.7,4.7,74,0.00,,,0.00,WUHU216HW,2013-07-03 21:30:00,
2013-07-03 16:40:00,68.9,60.6,30.02,ENE,75,2.5,3.8,74,0.00,,,0.00,WUHU216HW,2013-07-03 21:40:00,
2013-07-03 16:50:00,68.9,60.9,30.02,ENE,71,2.4,4.5,75,0.00,,,0.00,WUHU216HW,2013-07-03 21:50:00,
2013-07-03 17:00:00,68.7,61.1,30.02,East,80,2.3,3.8,76,0.00,,,0.00,WUHU216HW,2013-07-03 22:00:00,
2013-07-03 17:10:00,68.2,60.6,30.02,ESE,103,2.1,3.1,76,0.00,,,0.00,WUHU216HW,2013-07-03 22:10:00,
2013-07-03 17:20:00,67.8,60.6,30.01,ENE,77,2.7,4.5,77,0.00,,,0.00,WUHU216HW,2013-07-03 22:20:00,
2013-07-03 17:30:00,67.3,60.1,30.02,East,90,2.0,4.5,77,0.00,,,0.00,WUHU216HW,2013-07-03 22:30:00,
2013-07-03 17:40:00,66.7,60.2,30.02,East,91,1.6,3.1,79,0.00,,,0.00,WUHU216HW,2013-07-03 22:40:00,
2013-07-03 17:50:00,66.5,60.0,30.02,ENE,78,1.8,2.5,79,0.00,,,0.00,WUHU216HW,2013-07-03 22:50:00,
2013-07-03 18:01:00,66.4,59.9,30.01,East,85,3.2,4.0,79,0.00,,,0.00,WUHU216HW,2013-07-03 23:01:00,
2013-07-03 18:11:00,66.2,59.7,30.01,NE,54,2.8,4.5,79,0.00,,,0.00,WUHU216HW,2013-07-03 23:11:00,
2013-07-03 18:21:00,66.4,59.9,30.01,ENE,68,2.4,4.3,79,0.00,,,0.00,WUHU216HW,2013-07-03 23:21:00,
2013-07-03 18:31:00,66.4,60.3,30.01,East,83,2.5,3.1,80,0.00,,,0.00,WUHU216HW,2013-07-03 23:31:00,
2013-07-03 18:41:00,66.4,60.3,30.01,East,94,1.4,3.6,80,0.00,,,0.00,WUHU216HW,2013-07-03 23:41:00,
2013-07-03 18:51:00,66.4,60.3,30.01,ENE,76,1.3,2.7,80,0.00,,,0.00,WUHU216HW,2013-07-03 23:51:00,
2013-07-03 19:02:00,66.4,60.3,30.01,ENE,58,0.6,1.3,80,0.00,,,0.00,WUHU216HW,2013-07-04 00:02:00,
2013-07-03 19:12:00,66.5,60.3,30.01,SSE,166,0.5,0.9,80,0.00,,,0.00,WUHU216HW,2013-07-04 00:12:00,
2013-07-03 19:22:00,66.2,60.1,30.01,SE,135,0.4,0.4,80,0.00,,,0.00,WUHU216HW,2013-07-04 00:22:00,
2013-07-03 19:32:00,66.0,60.5,30.01,North,4,0.6,0.9,82,0.00,,,0.00,WUHU216HW,2013-07-04 00:32:00,
2013-07-03 19:42:00,65.8,60.0,30.01,NE,44,0.5,0.9,81,0.00,,,0.00,WUHU216HW,2013-07-04 00:42:00,
2013-07-03 19:52:00,65.8,60.0,30.01,NE,55,0.4,0.7,81,0.00,,,0.00,WUHU216HW,2013-07-04 00:52:00,
2013-07-03 20:02:00,65.5,60.0,30.01,WNW,294,0.3,0.4,82,0.00,,,0.00,WUHU216HW,2013-07-04 01:02:00,
2013-07-03 20:12:00,65.1,60.0,30.01,ENE,72,1.1,1.8,83,0.00,,,0.00,WUHU216HW,2013-07-04 01:12:00,
2013-07-03 20:22:00,64.9,59.8,30.01,ENE,72,0.4,0.7,83,0.00,,,0.00,WUHU216HW,2013-07-04 01:22:00,
2013-07-03 20:32:00,64.7,59.6,30.01,NE,56,0.3,0.4,83,0.00,,,0.00,WUHU216HW,2013-07-04 01:32:00,
2013-07-03 20:42:00,64.6,59.8,30.02,ENE,69,0.6,1.1,84,0.00,,,0.00,WUHU216HW,2013-07-04 01:42:00,
2013-07-03 20:53:00,64.6,59.8,30.02,WNW,300,0.9,1.6,84,0.00,,,0.00,WUHU216HW,2013-07-04 01:53:00,
2013-07-03 21:03:00,64.4,59.6,30.03,WSW,245,0.8,1.6,84,0.00,,,0.00,WUHU216HW,2013-07-04 02:03:00,
2013-07-03 21:13:00,64.2,59.4,30.03,SE,135,0.6,0.9,84,0.00,,,0.00,WUHU216HW,2013-07-04 02:13:00,
2013-07-03 21:23:00,64.2,59.4,30.03,North,7,0.3,0.4,84,0.00,,,0.00,WUHU216HW,2013-07-04 02:23:00,
2013-07-03 21:33:00,64.0,58.9,30.04,NNW,332,0.4,0.7,83,0.00,,,0.00,WUHU216HW,2013-07-04 02:33:00,
2013-07-03 21:43:00,64.0,58.9,30.03,NNW,338,0.4,0.4,83,0.00,,,0.00,WUHU216HW,2013-07-04 02:43:00,
2013-07-03 21:53:00,63.8,59.0,30.03,North,0,0.0,0.0,84,0.00,,,0.00,WUHU216HW,2013-07-04 02:53:00,
2013-07-03 22:03:00,63.8,59.0,30.03,NNE,30,0.3,0.4,84,0.00,,,0.00,WUHU216HW,2013-07-04 03:03:00,
2013-07-03 22:13:00,63.8,59.3,30.03,ENE,73,0.4,0.7,85,0.00,,,0.00,WUHU216HW,2013-07-04 03:13:00,
2013-07-03 22:23:00,63.8,59.0,30.04,ESE,113,0.4,0.7,84,0.00,,,0.00,WUHU216HW,2013-07-04 03:23:00,
2013-07-03 22:33:00,63.8,59.0,30.04,East,100,0.7,1.3,84,0.00,,,0.00,WUHU216HW,2013-07-04 03:33:00,
2013-07-03 22:44:00,63.7,58.9,30.03,SW,225,0.4,0.4,84,0.00,,,0.00,WUHU216HW,2013-07-04 03:44:00,
2013-07-03 22:54:00,63.7,59.2,30.04,SE,135,0.4,0.9,85,0.00,,,0.00,WUHU216HW,2013-07-04 03:54:00,
2013-07-03 23:04:00,63.7,59.2,30.04,WSW,252,1.0,2.0,85,0.00,,,0.00,WUHU216HW,2013-07-04 04:04:00,
2013-07-03 23:14:00,63.7,59.6,30.04,SSE,149,0.8,1.3,86,0.00,,,0.00,WUHU216HW,2013-07-04 04:14:00,
2013-07-03 23:24:00,63.5,59.4,30.04,ESE,115,0.5,1.1,86,0.00,,,0.00,WUHU216HW,2013-07-04 04:24:00,
2013-07-03 23:34:00,63.3,58.9,30.04,ESE,104,0.4,0.7,85,0.00,,,0.00,WUHU216HW,2013-07-04 04:34:00,
2013-07-03 23:44:00,63.1,58.7,30.04,South,180,0.6,0.9,85,0.00,,,0.00,WUHU216HW,2013-07-04 04:44:00,
2013-07-03 23:54:00,63.3,59.2,30.03,South,186,0.6,1.1,86,0.00,,,0.00,WUHU216HW,2013-07-04 04:54:00,